This is the latest recevied weather packets stored in our database for station/object KD8ZLZ. If no packets are shown the sender has not sent any weather packets the latest 10 day(s).
| Time | Temp. | Humidity | Pressure | Rain* | Wind** | Luminosity | Snow |
|---|---|---|---|---|---|---|---|
| 1777225568 | 17.78° C | 51% | 1022.2 hPa | 0 mm | - | - | - |
| 1777224927 | 18.33° C | 50% | 1022.2 hPa | 0 mm | - | - | - |
| 1777224627 | 18.89° C | 51% | 1022.2 hPa | 0 mm | - | - | - |
| 1777224048 | 17.78° C | 52% | 1022.2 hPa | 0 mm | - | - | - |
| 1777222828 | 17.22° C | 51% | 1022.5 hPa | 0 mm | - | - | - |
| 1777221628 | 16.67° C | 53% | 1022.1 hPa | 0 mm | - | - | - |
| 1777219528 | 16.67° C | 54% | 1022.5 hPa | 0 mm | - | - | - |
| 1777219228 | 16.11° C | 54% | 1022.5 hPa | 0 mm | - | - | - |
| 1777217728 | 15° C | 56% | 1022.4 hPa | 0 mm | - | - | - |
| 1777216848 | 14.44° C | 60% | 1022.4 hPa | 0 mm | - | - | - |
| 1777216528 | 14.44° C | 60% | 1022.4 hPa | 0 mm | - | - | - |
| 1777214427 | 13.33° C | 63% | 1022 hPa | 0 mm | - | - | - |
| 1777212928 | 12.78° C | 63% | 1022 hPa | 0 mm | - | - | - |
| 1777209048 | 10.56° C | 72% | 1021.9 hPa | 0 mm | - | - | - |
| 1777206648 | 8.89° C | 83% | 1021.9 hPa | 0 mm | - | - | - |
| 1777206027 | 8.33° C | 87% | 1021.5 hPa | 0 mm | - | - | - |
| 1777205128 | 7.22° C | 92% | 1021.5 hPa | 0 mm | - | - | - |
| 1777204828 | 6.67° C | 94% | 1021.1 hPa | 0 mm | - | - | - |
| 1777202727 | 5° C | 96% | 1020.7 hPa | 0 mm | - | - | - |
| 1777202128 | 5° C | 96% | 1021 hPa | 0 mm | - | - | - |
| 1777201827 | 5° C | 96% | 1020.7 hPa | 0 mm | - | - | - |
| 1777201528 | 5° C | 96% | 1020.7 hPa | 0 mm | - | - | - |
| 1777200628 | 5° C | 96% | 1020.4 hPa | 0 mm | - | - | - |
| 1777196127 | 6.11° C | 95% | 1019.4 hPa | 0 mm | - | - | - |
| 1777193728 | 6.67° C | 91% | 1019.1 hPa | 0 mm | - | - | - |
* Rain latest hour (hover to see other rain measurements)
** Current wind speed in m/s (hover to see current wind gust speed)